createdAt,value
2023-04-16T00:01:51.731Z,16.70
2023-04-16T00:04:18.709Z,15.60
2023-04-16T00:06:45.866Z,14.90
2023-04-16T00:09:12.622Z,15.17
2023-04-16T00:11:39.361Z,16.40
2023-04-16T00:14:06.200Z,14.73
2023-04-16T00:16:33.239Z,14.27
2023-04-16T00:19:00.054Z,15.80
2023-04-16T00:21:26.828Z,15.00
2023-04-16T00:23:53.667Z,15.77
2023-04-16T00:26:20.532Z,14.20
2023-04-16T00:28:47.366Z,17.30
2023-04-16T00:31:14.213Z,16.20
2023-04-16T00:33:41.215Z,15.10
2023-04-16T00:36:09.086Z,15.40
2023-04-16T00:38:37.115Z,15.57
2023-04-16T00:41:03.837Z,15.67
2023-04-16T00:43:31.754Z,13.20
2023-04-16T00:45:59.377Z,14.57
2023-04-16T00:48:28.072Z,15.10
2023-04-16T00:50:55.591Z,15.13
2023-04-16T00:53:22.598Z,15.03
2023-04-16T00:55:50.613Z,16.90
2023-04-16T00:58:18.289Z,14.20
2023-04-16T01:00:45.369Z,15.43
2023-04-16T01:03:13.345Z,16.00
2023-04-16T01:05:41.515Z,16.20
2023-04-16T01:08:16.887Z,16.80
2023-04-16T01:10:43.787Z,16.90
2023-04-16T01:13:11.241Z,14.57
2023-04-16T01:15:38.454Z,16.70
2023-04-16T01:18:21.431Z,16.10
2023-04-16T01:20:49.381Z,16.07
2023-04-16T01:23:18.533Z,15.70
2023-04-16T01:25:46.294Z,16.20
2023-04-16T01:28:13.229Z,15.13
2023-04-16T01:30:40.209Z,15.20
2023-04-16T01:33:08.233Z,16.60
2023-04-16T01:35:35.177Z,16.90
2023-04-16T01:38:02.611Z,15.63
2023-04-16T01:40:29.472Z,16.50
2023-04-16T01:42:56.572Z,15.13
2023-04-16T01:45:23.675Z,16.97
2023-04-16T01:47:52.227Z,16.30
2023-04-16T01:50:20.379Z,17.40
2023-04-16T01:52:47.272Z,18.07
2023-04-16T01:55:14.265Z,17.23
2023-04-16T01:57:41.080Z,16.53
2023-04-16T02:00:08.787Z,17.00
2023-04-16T02:02:36.494Z,15.43
2023-04-16T02:05:03.579Z,16.43
2023-04-16T02:07:31.698Z,15.13
2023-04-16T02:09:58.640Z,17.33
2023-04-16T02:12:26.708Z,16.27
2023-04-16T02:14:53.877Z,17.03
2023-04-16T02:17:21.361Z,15.70
2023-04-16T02:19:48.436Z,16.73
2023-04-16T02:22:15.481Z,16.17
2023-04-16T02:24:42.308Z,17.23
2023-04-16T02:27:09.102Z,16.90
2023-04-16T02:29:36.013Z,17.07
2023-04-16T02:32:02.794Z,16.50
2023-04-16T02:34:29.733Z,18.37
2023-04-16T02:36:58.376Z,18.00
2023-04-16T02:39:25.347Z,18.43
2023-04-16T02:41:52.480Z,15.33
2023-04-16T02:44:19.337Z,16.10
2023-04-16T02:46:46.345Z,15.70
2023-04-16T02:49:13.231Z,15.13
2023-04-16T02:51:40.090Z,15.87
2023-04-16T02:54:06.922Z,16.47
2023-04-16T02:56:33.850Z,14.10
2023-04-16T02:59:00.743Z,14.00
2023-04-16T04:02:02.992Z,13.93
2023-04-16T04:04:29.954Z,13.80
2023-04-16T04:06:56.798Z,12.90
2023-04-16T04:09:23.534Z,14.17
2023-04-16T04:11:50.754Z,14.23
2023-04-16T04:14:17.435Z,14.20
2023-04-16T04:16:44.273Z,13.63
2023-04-16T04:19:11.647Z,13.80
2023-04-16T04:21:39.066Z,13.30
2023-04-16T04:24:06.141Z,14.23
2023-04-16T04:26:32.828Z,14.23
2023-04-16T04:28:59.642Z,14.93
2023-04-16T04:31:26.513Z,13.10
2023-04-16T04:33:53.273Z,12.40
2023-04-16T04:36:20.491Z,12.80
2023-04-16T04:38:47.352Z,13.53
2023-04-16T04:41:14.118Z,14.23
2023-04-16T04:43:41.296Z,14.47
2023-04-16T04:46:08.140Z,12.70
2023-04-16T04:48:35.330Z,12.60
2023-04-16T04:51:05.278Z,13.03
2023-04-16T04:53:32.268Z,11.90
2023-04-16T04:56:09.134Z,12.70
2023-04-16T04:58:38.789Z,15.67
2023-04-16T05:01:06.008Z,15.53
2023-04-16T05:03:32.984Z,12.50
2023-04-16T05:05:59.873Z,15.77
2023-04-16T05:08:27.034Z,13.00
2023-04-16T05:10:53.905Z,13.97
2023-04-16T05:13:20.722Z,13.77
2023-04-16T05:15:47.531Z,13.77
2023-04-16T05:18:14.403Z,14.43
2023-04-16T05:20:41.211Z,14.90
2023-04-16T05:23:08.045Z,16.10
2023-04-16T05:25:35.043Z,14.50
2023-04-16T05:28:01.811Z,14.67
2023-04-16T05:30:28.523Z,13.70
2023-04-16T05:32:55.356Z,12.60
2023-04-16T05:35:22.239Z,14.87
2023-04-16T05:37:49.043Z,13.53
2023-04-16T05:40:15.911Z,14.23
2023-04-16T05:42:42.756Z,14.17
2023-04-16T05:45:10.301Z,14.27
2023-04-16T05:47:37.048Z,15.30
2023-04-16T05:50:03.964Z,14.10
2023-04-16T05:52:30.729Z,15.37
2023-04-16T05:54:58.154Z,16.20
2023-04-16T05:57:24.935Z,15.10
2023-04-16T05:59:51.791Z,15.47
2023-04-16T06:02:18.819Z,14.90
2023-04-16T06:04:45.661Z,16.33
2023-04-16T06:07:12.691Z,14.17
2023-04-16T06:09:39.456Z,14.70
2023-04-16T06:12:06.264Z,13.50
2023-04-16T06:14:33.094Z,15.07
2023-04-16T06:16:59.901Z,13.60
2023-04-16T06:19:26.720Z,13.07
2023-04-16T06:21:53.771Z,14.10
2023-04-16T06:24:20.826Z,13.10
2023-04-16T06:26:47.558Z,13.80
2023-04-16T06:29:14.339Z,15.10
2023-04-16T06:31:41.241Z,14.50
2023-04-16T06:34:09.279Z,14.07
2023-04-16T06:36:37.613Z,12.27
2023-04-16T06:39:05.053Z,13.27
2023-04-16T06:41:32.057Z,12.43
2023-04-16T06:43:58.914Z,13.23
2023-04-16T06:46:25.822Z,13.10
2023-04-16T06:48:52.642Z,13.70
2023-04-16T06:51:20.710Z,15.30
2023-04-16T06:53:47.556Z,15.53
2023-04-16T06:56:14.340Z,16.70
2023-04-16T06:58:41.292Z,16.20
2023-04-16T07:01:08.136Z,16.93
2023-04-16T07:03:35.244Z,17.00
2023-04-16T07:06:02.422Z,17.80
2023-04-16T07:08:29.228Z,17.77
2023-04-16T07:10:56.178Z,18.47
2023-04-16T07:13:23.240Z,17.90
2023-04-16T07:15:50.004Z,20.17
2023-04-16T07:18:16.791Z,19.47
2023-04-16T07:20:43.715Z,21.40
2023-04-16T07:23:10.623Z,24.20
2023-04-16T07:25:37.528Z,22.57
2023-04-16T07:28:04.463Z,23.27
2023-04-16T07:30:34.313Z,24.57
2023-04-16T07:33:02.900Z,22.97
2023-04-16T07:35:30.466Z,22.67
2023-04-16T07:37:57.368Z,21.43
2023-04-16T07:40:24.829Z,23.70
2023-04-16T07:42:51.746Z,25.93
2023-04-16T07:45:19.220Z,24.47
2023-04-16T07:47:46.239Z,24.87
2023-04-16T07:50:13.374Z,26.43
2023-04-16T07:52:42.385Z,24.73
2023-04-16T07:55:09.349Z,26.73
2023-04-16T07:57:36.504Z,31.60
2023-04-16T08:00:05.322Z,26.03
2023-04-16T08:02:32.499Z,26.70
2023-04-16T08:04:59.936Z,26.87
2023-04-16T08:07:26.779Z,27.70
2023-04-16T08:09:54.515Z,26.57
2023-04-16T08:12:21.636Z,26.30
2023-04-16T08:14:48.596Z,26.20
2023-04-16T08:17:15.564Z,27.10
2023-04-16T08:19:45.295Z,26.40
2023-04-16T08:22:13.202Z,25.30
2023-04-16T08:24:40.547Z,25.90
2023-04-16T08:27:17.923Z,26.50
2023-04-16T08:29:46.541Z,25.73
2023-04-16T08:32:13.454Z,25.90
2023-04-16T08:34:40.490Z,25.33
2023-04-16T08:37:07.258Z,25.93
2023-04-16T08:39:34.246Z,26.23
2023-04-16T08:42:04.785Z,25.07
2023-04-16T08:44:34.945Z,26.90
2023-04-16T08:47:02.423Z,24.93
2023-04-16T08:49:29.916Z,24.90
2023-04-16T08:51:57.303Z,23.47
2023-04-16T08:54:43.186Z,24.33
2023-04-16T08:57:12.007Z,24.33
2023-04-16T08:59:40.066Z,25.33
2023-04-16T09:02:07.513Z,23.17
2023-04-16T09:04:35.892Z,23.13
2023-04-16T09:07:08.035Z,24.03
2023-04-16T09:09:35.751Z,24.53
2023-04-16T09:12:03.206Z,23.80
2023-04-16T09:14:30.948Z,24.77
2023-04-16T09:17:01.118Z,23.27
2023-04-16T09:19:28.172Z,23.17
2023-04-16T09:21:54.957Z,23.07
2023-04-16T09:24:22.168Z,23.20
2023-04-16T09:26:50.448Z,20.07
2023-04-16T09:29:35.634Z,20.93
2023-04-16T09:32:04.483Z,20.40
2023-04-16T09:34:33.697Z,19.03
2023-04-16T09:37:16.763Z,20.03
2023-04-16T09:39:44.454Z,19.87
2023-04-16T09:42:12.177Z,19.20
2023-04-16T09:44:39.454Z,19.27
2023-04-16T09:47:08.381Z,18.30
2023-04-16T09:49:40.834Z,18.50
2023-04-16T09:52:15.770Z,21.83
2023-04-16T09:54:47.501Z,21.30
2023-04-16T09:57:16.358Z,18.73
2023-04-16T09:59:43.078Z,19.60
2023-04-16T10:02:15.436Z,18.67
2023-04-16T10:04:47.276Z,19.83
2023-04-16T10:07:14.316Z,19.17
2023-04-16T10:09:41.837Z,19.40
2023-04-16T10:12:09.504Z,19.03
2023-04-16T10:14:36.546Z,18.70
2023-04-16T10:17:04.554Z,18.70
2023-04-16T10:19:32.734Z,20.17
2023-04-16T10:21:59.985Z,20.43
2023-04-16T10:24:27.177Z,19.70
2023-04-16T10:26:55.470Z,19.70
2023-04-16T10:29:22.760Z,18.53
2023-04-16T10:31:51.032Z,18.70
2023-04-16T10:34:19.775Z,18.27
2023-04-16T10:36:52.435Z,19.27
2023-04-16T10:39:21.530Z,19.77
2023-04-16T10:41:48.890Z,19.00
2023-04-16T10:44:18.871Z,21.60
2023-04-16T10:46:49.864Z,21.50
2023-04-16T10:49:24.137Z,18.20
2023-04-16T10:52:02.306Z,18.97
2023-04-16T10:54:30.783Z,19.07
2023-04-16T10:57:00.799Z,18.67
2023-04-16T10:59:33.354Z,18.70
2023-04-16T11:02:01.896Z,18.87
2023-04-16T11:04:33.650Z,19.60
2023-04-16T11:07:04.719Z,18.63
2023-04-16T11:10:02.541Z,20.23
2023-04-16T11:12:29.376Z,20.23
2023-04-16T11:15:00.156Z,18.10
2023-04-16T11:17:37.518Z,18.13
2023-04-16T11:20:13.598Z,16.40
2023-04-16T11:22:47.168Z,18.23
2023-04-16T11:25:19.165Z,17.10
2023-04-16T11:27:46.101Z,17.33
2023-04-16T11:30:13.633Z,18.63
2023-04-16T11:32:40.736Z,16.23
2023-04-16T11:35:17.097Z,20.17
2023-04-16T11:37:44.618Z,18.80
2023-04-16T11:40:11.973Z,19.40
2023-04-16T11:42:41.052Z,17.90
2023-04-16T11:45:09.866Z,18.43
2023-04-16T11:47:53.618Z,17.10
2023-04-16T11:50:25.875Z,18.73
2023-04-16T11:52:54.428Z,17.23
2023-04-16T11:55:21.797Z,16.13
2023-04-16T11:57:49.058Z,16.20
2023-04-16T12:00:18.112Z,14.03
2023-04-16T12:02:46.892Z,16.60
2023-04-16T12:05:38.762Z,17.37
2023-04-16T12:08:07.910Z,16.67
2023-04-16T12:10:37.301Z,14.53
2023-04-16T12:13:19.918Z,15.57
2023-04-16T12:15:49.258Z,14.03
2023-04-16T12:18:17.012Z,14.90
2023-04-16T12:20:45.686Z,15.00
2023-04-16T12:23:29.064Z,13.73
2023-04-16T12:25:56.514Z,14.33
2023-04-16T12:28:39.378Z,14.97
2023-04-16T12:31:06.795Z,15.40
2023-04-16T12:33:33.634Z,12.40
2023-04-16T12:36:01.798Z,13.03
2023-04-16T12:38:29.223Z,14.00
2023-04-16T12:40:57.662Z,14.00
2023-04-16T12:43:25.104Z,12.60
2023-04-16T12:45:52.086Z,11.37
2023-04-16T12:48:18.850Z,10.97
2023-04-16T12:50:46.048Z,10.20
2023-04-16T12:53:12.878Z,10.73
2023-04-16T12:55:39.686Z,11.37
2023-04-16T12:58:06.858Z,9.83
2023-04-16T13:00:33.622Z,10.60
2023-04-16T13:03:00.601Z,8.70
2023-04-16T13:05:27.630Z,8.20
2023-04-16T13:07:54.590Z,7.73
2023-04-16T13:10:22.089Z,8.33
2023-04-16T13:12:49.204Z,7.80
2023-04-16T13:15:16.177Z,7.83
2023-04-16T13:17:43.140Z,7.87
2023-04-16T13:20:11.094Z,8.73
2023-04-16T13:22:38.003Z,8.13
2023-04-16T13:25:05.764Z,8.90
2023-04-16T13:27:32.686Z,8.50
2023-04-16T13:29:59.488Z,8.50
2023-04-16T13:32:26.522Z,7.70
2023-04-16T13:34:53.552Z,8.23
2023-04-16T13:37:20.353Z,10.93
2023-04-16T13:39:47.488Z,7.40
2023-04-16T13:42:14.386Z,8.10
2023-04-16T13:44:41.245Z,7.10
2023-04-16T13:47:08.485Z,7.40
2023-04-16T13:49:36.373Z,7.50
2023-04-16T13:52:03.871Z,8.20
2023-04-16T13:54:30.978Z,8.50
2023-04-16T13:56:57.864Z,8.20
2023-04-16T13:59:24.839Z,7.53
2023-04-16T14:01:51.871Z,8.37
2023-04-16T14:04:18.905Z,9.07
2023-04-16T14:06:46.030Z,7.87
2023-04-16T14:09:13.120Z,7.40
2023-04-16T14:11:40.294Z,7.97
2023-04-16T14:14:07.184Z,8.10
2023-04-16T14:16:35.822Z,8.60
2023-04-16T14:19:02.742Z,7.60
2023-04-16T14:21:31.314Z,8.30
2023-04-16T14:23:58.084Z,8.10
2023-04-16T14:26:24.956Z,9.00
2023-04-16T14:28:52.012Z,9.90
2023-04-16T14:31:19.876Z,8.63
2023-04-16T14:33:47.169Z,8.57
2023-04-16T14:36:14.383Z,9.90
2023-04-16T14:38:43.273Z,10.00
2023-04-16T14:41:11.973Z,9.80
2023-04-16T14:43:40.531Z,8.87
2023-04-16T14:46:07.515Z,9.07
2023-04-16T14:48:34.267Z,9.67
2023-04-16T14:51:01.267Z,11.57
2023-04-16T14:53:29.061Z,10.80
2023-04-16T14:55:59.051Z,10.73
2023-04-16T14:58:26.358Z,10.83
2023-04-16T15:00:53.600Z,11.77
2023-04-16T15:03:21.062Z,10.40
2023-04-16T15:05:54.933Z,11.57
2023-04-16T15:08:23.303Z,11.13
2023-04-16T15:10:51.011Z,10.90
2023-04-16T15:13:17.984Z,11.40
2023-04-16T15:15:44.963Z,11.40
2023-04-16T15:18:11.925Z,13.33
2023-04-16T15:20:38.853Z,13.27
2023-04-16T15:23:05.933Z,12.90
2023-04-16T15:25:32.781Z,13.70
2023-04-16T15:27:59.713Z,12.77
2023-04-16T15:30:26.493Z,12.07
2023-04-16T15:32:55.132Z,11.57
2023-04-16T15:35:22.077Z,14.43
2023-04-16T15:37:48.978Z,13.30
2023-04-16T15:40:18.767Z,15.57
2023-04-16T15:42:45.677Z,14.73
2023-04-16T15:45:12.605Z,14.53
2023-04-16T15:47:41.648Z,15.07
2023-04-16T15:50:09.062Z,16.23
2023-04-16T15:52:36.482Z,14.20
2023-04-16T15:55:04.385Z,15.10
2023-04-16T15:57:31.422Z,16.23
2023-04-16T16:02:29.919Z,17.03
2023-04-16T16:04:56.877Z,16.30
2023-04-16T16:07:25.217Z,16.47
2023-04-16T16:09:53.135Z,16.70
2023-04-16T16:12:20.053Z,17.50
2023-04-16T16:14:47.766Z,15.50
2023-04-16T16:17:14.989Z,18.00
2023-04-16T16:19:41.921Z,17.97
2023-04-16T16:22:10.161Z,17.07
2023-04-16T16:24:37.044Z,16.80
2023-04-16T16:27:04.122Z,17.37
2023-04-16T16:29:31.320Z,17.30
2023-04-16T16:31:58.211Z,19.20
2023-04-16T16:34:26.245Z,18.30
2023-04-16T16:36:53.041Z,18.40
2023-04-16T16:39:24.376Z,19.30
2023-04-16T16:41:52.701Z,19.10
2023-04-16T16:44:20.737Z,20.07
2023-04-16T16:46:47.991Z,19.67
2023-04-16T16:49:15.947Z,21.20
2023-04-16T16:51:45.790Z,21.63
2023-04-16T16:54:12.823Z,20.70
2023-04-16T16:56:39.798Z,19.40
2023-04-16T16:59:07.775Z,21.30
2023-04-16T17:01:35.101Z,22.67
2023-04-16T17:04:02.120Z,19.80
2023-04-16T17:06:29.171Z,19.50
2023-04-16T17:08:56.166Z,22.30
2023-04-16T17:11:23.066Z,19.60
2023-04-16T17:13:49.972Z,20.30
2023-04-16T17:16:17.759Z,21.40
2023-04-16T17:18:44.742Z,19.50
2023-04-16T17:21:11.592Z,18.77
2023-04-16T17:23:41.033Z,22.00
2023-04-16T17:26:08.064Z,20.53
2023-04-16T17:28:35.103Z,19.53
2023-04-16T17:31:02.917Z,20.47
2023-04-16T17:33:29.700Z,20.83
2023-04-16T17:35:56.512Z,21.60
2023-04-16T17:38:23.653Z,21.40
2023-04-16T17:40:50.533Z,20.70
2023-04-16T17:43:17.389Z,22.20
2023-04-16T17:45:44.254Z,20.90
2023-04-16T17:48:11.216Z,21.13
2023-04-16T17:50:39.619Z,19.90
2023-04-16T17:53:06.613Z,20.23
2023-04-16T17:55:33.470Z,24.00
2023-04-16T17:58:00.717Z,32.50
2023-04-16T18:00:27.640Z,32.27
2023-04-16T18:02:56.604Z,26.30
2023-04-16T18:05:23.783Z,25.67
2023-04-16T18:07:51.605Z,26.70
2023-04-16T18:10:18.700Z,27.27
2023-04-16T18:12:45.539Z,26.43
2023-04-16T18:15:12.391Z,25.70
2023-04-16T18:17:39.225Z,25.37
2023-04-16T18:20:07.252Z,25.50
2023-04-16T18:22:34.128Z,25.57
2023-04-16T18:25:01.207Z,23.63
2023-04-16T18:27:28.809Z,25.17
2023-04-16T18:29:55.806Z,26.37
2023-04-16T18:32:22.916Z,24.43
2023-04-16T18:34:49.856Z,24.87
2023-04-16T18:37:17.414Z,25.20
2023-04-16T18:39:44.319Z,27.97
2023-04-16T18:42:11.125Z,23.93
2023-04-16T18:44:37.972Z,24.77
2023-04-16T18:47:04.984Z,23.57
2023-04-16T18:49:31.876Z,23.30
2023-04-16T18:51:58.678Z,24.27
2023-04-16T18:54:25.675Z,23.23
2023-04-16T18:56:52.475Z,23.27
2023-04-16T18:59:19.222Z,26.07
2023-04-16T19:01:46.236Z,27.37
2023-04-16T19:04:13.121Z,25.23
2023-04-16T19:06:40.211Z,26.47
2023-04-16T19:09:09.488Z,25.63
2023-04-16T19:11:37.676Z,27.90
2023-04-16T19:14:05.800Z,27.53
2023-04-16T19:16:32.843Z,25.23
2023-04-16T19:18:59.699Z,24.20
2023-04-16T19:21:27.622Z,24.33
2023-04-16T19:23:54.419Z,24.03
2023-04-16T19:26:21.426Z,22.10
2023-04-16T19:28:48.270Z,23.33
2023-04-16T19:31:15.156Z,24.57
2023-04-16T19:33:42.127Z,24.00
2023-04-16T19:36:09.037Z,24.40
2023-04-16T19:38:35.978Z,26.23
2023-04-16T19:41:02.792Z,25.30
2023-04-16T19:43:31.125Z,24.20
2023-04-16T19:45:58.203Z,21.80
2023-04-16T19:48:25.018Z,22.97
2023-04-16T19:50:51.900Z,22.93
2023-04-16T19:53:18.842Z,22.17
2023-04-16T19:55:45.599Z,22.17
2023-04-16T19:58:14.416Z,20.60
2023-04-16T20:00:42.088Z,18.30
2023-04-16T20:03:09.748Z,20.10
2023-04-16T20:05:36.637Z,18.50
2023-04-16T20:08:03.724Z,19.13
2023-04-16T20:10:31.609Z,17.60
2023-04-16T20:12:58.645Z,19.90
2023-04-16T20:15:25.939Z,18.67
2023-04-16T20:17:53.436Z,23.30
2023-04-16T20:20:22.655Z,22.10
2023-04-16T20:22:49.921Z,21.60
2023-04-16T20:25:19.346Z,20.30
2023-04-16T20:27:46.402Z,19.00
2023-04-16T20:30:13.889Z,19.00
2023-04-16T20:32:40.780Z,18.33
2023-04-16T20:35:10.749Z,19.70
2023-04-16T20:37:39.209Z,20.50
2023-04-16T20:40:08.809Z,19.10
2023-04-16T20:42:35.813Z,18.77
2023-04-16T20:45:02.763Z,20.83
2023-04-16T20:47:29.716Z,19.83
2023-04-16T20:49:56.532Z,17.90
2023-04-16T20:52:23.233Z,19.83
2023-04-16T20:54:52.914Z,21.03
2023-04-16T20:57:20.898Z,20.97
2023-04-16T20:59:49.942Z,21.07
2023-04-16T21:02:19.039Z,22.00
2023-04-16T21:04:47.059Z,22.33
2023-04-16T21:07:15.055Z,22.00
2023-04-16T21:09:42.819Z,21.60
2023-04-16T21:12:10.596Z,24.93
2023-04-16T21:14:38.595Z,22.40
2023-04-16T21:17:06.373Z,23.60
2023-04-16T21:19:34.202Z,23.83
2023-04-16T21:22:03.430Z,24.47
2023-04-16T21:24:32.860Z,22.47
2023-04-16T21:27:01.064Z,24.17
2023-04-16T21:29:28.714Z,23.43
2023-04-16T21:31:56.768Z,24.77
2023-04-16T21:34:25.095Z,23.60
2023-04-16T21:36:53.089Z,23.20
2023-04-16T21:39:22.299Z,21.57
2023-04-16T21:41:50.460Z,23.60
2023-04-16T21:44:18.368Z,23.87
2023-04-16T21:46:46.316Z,23.10
2023-04-16T21:49:14.134Z,24.70
2023-04-16T21:51:43.503Z,24.07
2023-04-16T21:54:11.532Z,25.40
2023-04-16T21:56:39.968Z,24.37
2023-04-16T21:59:07.915Z,23.47
2023-04-16T22:01:36.133Z,22.77
2023-04-16T22:04:04.280Z,23.17
2023-04-16T22:06:32.363Z,21.40
2023-04-16T22:09:00.026Z,21.60
2023-04-16T22:11:27.904Z,21.20
2023-04-16T22:13:58.328Z,25.47
2023-04-16T22:16:26.329Z,38.37
2023-04-16T22:18:55.394Z,23.20
2023-04-16T22:21:23.497Z,19.37
2023-04-16T22:23:51.464Z,19.00
2023-04-16T22:26:19.379Z,21.87
2023-04-16T22:28:47.557Z,20.30
2023-04-16T22:31:15.415Z,19.33
2023-04-16T22:33:43.413Z,19.40
2023-04-16T22:36:11.401Z,18.10
2023-04-16T22:38:39.293Z,19.57
2023-04-16T22:41:07.375Z,19.40
2023-04-16T22:43:37.658Z,18.37
2023-04-16T22:46:06.857Z,17.80
2023-04-16T22:48:36.939Z,18.67
2023-04-16T22:51:06.027Z,19.97
2023-04-16T22:53:34.606Z,18.20
2023-04-16T22:56:02.679Z,19.07
2023-04-16T22:58:30.796Z,17.90
2023-04-16T23:01:00.190Z,18.10
2023-04-16T23:03:28.173Z,16.93
2023-04-16T23:05:54.977Z,17.20
2023-04-16T23:08:21.778Z,17.87
2023-04-16T23:10:48.480Z,16.67
2023-04-16T23:13:15.763Z,16.70
2023-04-16T23:15:43.727Z,16.97
2023-04-16T23:18:10.654Z,17.20
2023-04-16T23:20:37.488Z,16.70
2023-04-16T23:23:04.241Z,17.70
2023-04-16T23:25:31.630Z,16.73
2023-04-16T23:27:58.469Z,17.50
2023-04-16T23:30:27.206Z,15.70
2023-04-16T23:32:55.041Z,17.40
2023-04-16T23:35:22.850Z,17.30
2023-04-16T23:37:50.688Z,17.30
2023-04-16T23:40:18.555Z,17.30
2023-04-16T23:42:45.724Z,16.73
2023-04-16T23:45:12.630Z,18.00
2023-04-16T23:47:40.240Z,16.53
2023-04-16T23:50:07.563Z,17.30
2023-04-16T23:52:34.452Z,18.67
2023-04-16T23:55:01.278Z,18.00
2023-04-16T23:57:28.156Z,16.83
2023-04-16T23:59:55.044Z,17.43
